createdAt,value
2022-07-31T00:03:37.719Z,60.8
2022-07-31T00:18:05.317Z,62.5
2022-07-31T00:32:32.223Z,62.3
2022-07-31T00:47:02.126Z,63.8
2022-07-31T01:01:29.563Z,64.3
2022-07-31T01:15:56.856Z,65.8
2022-07-31T01:30:30.972Z,65.5
2022-07-31T01:44:52.837Z,66.8
2022-07-31T01:59:24.662Z,67.3
2022-07-31T02:13:48.407Z,69
2022-07-31T02:28:16.736Z,70.5
2022-07-31T02:42:44.953Z,69.6
2022-07-31T02:57:12.888Z,71.4
2022-07-31T03:11:39.710Z,70.9
2022-07-31T03:26:06.328Z,72.2
2022-07-31T03:40:34.061Z,71.9
2022-07-31T03:55:02.655Z,72.8
2022-07-31T04:09:30.975Z,72.4
2022-07-31T04:23:59.465Z,72.8
2022-07-31T04:38:27.505Z,71.6
2022-07-31T04:52:55.866Z,70.7
2022-07-31T05:07:29.185Z,70.3
2022-07-31T05:21:56.344Z,70.6
2022-07-31T05:36:24.591Z,71.7
2022-07-31T05:50:53.742Z,70.9
2022-07-31T06:05:22.615Z,70.2
2022-07-31T06:19:50.884Z,70.4
2022-07-31T06:34:20.244Z,68.6
2022-07-31T06:48:49.304Z,68.4
2022-07-31T07:03:17.546Z,64.1
2022-07-31T07:17:48.122Z,59.8
2022-07-31T07:32:18.152Z,57.4
2022-07-31T07:46:46.950Z,57.6
2022-07-31T08:01:14.972Z,58.3
2022-07-31T08:15:42.447Z,59.1
2022-07-31T08:30:10.310Z,61.1
2022-07-31T08:44:37.911Z,59.9
2022-07-31T08:59:05.218Z,59.4
2022-07-31T09:13:33.760Z,58.2
2022-07-31T09:28:03.851Z,55.6
2022-07-31T09:42:32.865Z,54.3
2022-07-31T09:57:00.735Z,55.7
2022-07-31T10:11:26.166Z,55.7
2022-07-31T10:25:57.768Z,53.8
2022-07-31T10:40:26.802Z,49.8
2022-07-31T10:54:53.752Z,52
2022-07-31T11:09:20.584Z,51.5
2022-07-31T11:24:04.954Z,49.5
2022-07-31T11:38:29.579Z,47.4
2022-07-31T11:53:00.151Z,46
2022-07-31T12:07:27.359Z,46
2022-07-31T12:21:54.319Z,46.7
2022-07-31T12:36:22.273Z,45.5
2022-07-31T12:50:49.891Z,46.5
2022-07-31T13:05:18.795Z,43.8
2022-07-31T13:19:47.035Z,43.3
2022-07-31T13:34:16.201Z,44.5
2022-07-31T13:48:42.643Z,46.9
2022-07-31T14:03:11.017Z,47.4
2022-07-31T14:17:38.057Z,48.1
2022-07-31T14:32:08.715Z,46.9
2022-07-31T14:46:34.564Z,50.1
2022-07-31T15:01:03.095Z,49.9
2022-07-31T15:15:31.979Z,52
2022-07-31T15:30:07.915Z,53.9
2022-07-31T15:44:30.114Z,52.5
2022-07-31T15:58:58.855Z,53.3
2022-07-31T16:13:28.093Z,52.9
2022-07-31T16:27:56.778Z,52.4
2022-07-31T16:42:25.937Z,52.2
2022-07-31T16:56:54.590Z,52.4
2022-07-31T17:11:20.853Z,53.2
2022-07-31T17:25:50.108Z,52.5
2022-07-31T17:40:44.006Z,51.9
2022-07-31T17:54:57.274Z,53.2
2022-07-31T18:09:25.177Z,54.1
2022-07-31T18:23:51.362Z,54
2022-07-31T18:38:18.196Z,55.6
2022-07-31T18:52:45.885Z,56.2
2022-07-31T19:07:12.084Z,57.2
2022-07-31T19:21:44.041Z,63.5
2022-07-31T19:36:11.819Z,64.7
2022-07-31T19:50:36.266Z,64.1
2022-07-31T20:05:04.516Z,61.1
2022-07-31T20:19:32.328Z,60.7
2022-07-31T20:33:58.488Z,73.9
2022-07-31T20:48:24.870Z,79.5
2022-07-31T21:02:52.735Z,79.7
2022-07-31T21:17:25.956Z,81.3
2022-07-31T21:31:52.542Z,91.6
2022-07-31T21:46:17.777Z,96.3
2022-07-31T22:00:44.420Z,100
2022-07-31T22:15:15.775Z,96.2
2022-07-31T22:29:40.223Z,99.4
2022-07-31T22:44:15.922Z,97.3
2022-07-31T22:58:40.946Z,98.8
2022-07-31T23:13:09.179Z,94
2022-07-31T23:27:37.021Z,97
2022-07-31T23:42:05.089Z,97.8
2022-07-31T23:56:33.305Z,97
